Agios Ioannis II — SV4996 — position and weather

sailwx.info

Track history (hours):
 
Tides and Currents Weather Stations Pressure Air Temp Water Temp Dewpoint Dewpoint Depression Visibility Wind Speed Wind Dir Waves Ship Positions

Agios Ioannis II

Last reported at 2018-Jan-07 15:15 UTC. Time now 2018-Feb-25 03:58 UTC.
Position N 38°24' E 025°48'.
Warning: this ship's position is 48 days out of date.

Length 27 m.

Type: Other ship. MMSI: 237519000.

Date/timePositionNaut miles runAvg speedWind from/ knotsBaromVisibWave heightAir tempDewpointWater temp
2018-Jan-07 15:15N 38°24' E 025°48'1 3.0
2018-Jan-07 15:00N 38°23' E 025°49'4 0.2
2018-Jan-06 16:38N 38°27' E 025°48'2 9.5
2018-Jan-06 16:23N 38°25' E 025°47'0 0.4
2018-Jan-06 15:45N 38°24' E 025°47'1 3.1
2018-Jan-06 15:28N 38°24' E 025°48'1 3.0
2018-Jan-06 15:00N 38°23' E 025°49'2 3.1
2018-Jan-06 14:30N 38°22' E 025°50'2 3.2
2018-Jan-06 14:00N 38°21' E 025°52'4 2.4
2018-Jan-06 12:22N 38°25' E 025°52'1 3.1
2018-Jan-06 12:00N 38°26' E 025°51'3 3.0
2018-Jan-06 10:52N 38°28' E 025°47'  
Track history (hours):
 
Tides and Currents Weather Stations Pressure Air Temp Water Temp Dewpoint Dewpoint Depression Visibility Wind Speed Wind Dir Waves Ship Positions

Agios Ioannis II

Last reported at 2018-Jan-07 15:15 UTC. Time now 2018-Feb-25 03:58 UTC.
Position N 38°24' E 025°48'.
Warning: this ship's position is 48 days out of date.

Length 27 m.

Type: Other ship. MMSI: 237519000.

Date/timePositionNaut miles runAvg speedWind from/ knotsBaromVisibWave heightAir tempDewpointWater temp
2018-Jan-07 15:15N 38°24' E 025°48'1 3.0
2018-Jan-07 15:00N 38°23' E 025°49'4 0.2
2018-Jan-06 16:38N 38°27' E 025°48'2 9.5
2018-Jan-06 16:23N 38°25' E 025°47'0 0.4
2018-Jan-06 15:45N 38°24' E 025°47'1 3.1
2018-Jan-06 15:28N 38°24' E 025°48'1 3.0
2018-Jan-06 15:00N 38°23' E 025°49'2 3.1
2018-Jan-06 14:30N 38°22' E 025°50'2 3.2
2018-Jan-06 14:00N 38°21' E 025°52'4 2.4
2018-Jan-06 12:22N 38°25' E 025°52'1 3.1
2018-Jan-06 12:00N 38°26' E 025°51'3 3.0
2018-Jan-06 10:52N 38°28' E 025°47'  

Dump ship's entire track history